sensor_id;sensor_type;location;lat;lon;timestamp;pressure;altitude;pressure_sealevel;temperature;humidity
19210;BME280;9738;51.654;14.238;2022-11-10T00:00:56;100477.69;;;12.13;100.00
19210;BME280;9738;51.654;14.238;2022-11-10T00:03:22;100486.88;;;12.11;100.00
19210;BME280;9738;51.654;14.238;2022-11-10T00:05:49;100489.72;;;12.09;100.00
19210;BME280;9738;51.654;14.238;2022-11-10T00:08:14;100491.22;;;12.12;100.00
19210;BME280;9738;51.654;14.238;2022-11-10T00:10:40;100490.91;;;12.15;100.00
19210;BME280;9738;51.654;14.238;2022-11-10T00:13:28;100492.59;;;12.16;100.00
19210;BME280;9738;51.654;14.238;2022-11-10T00:15:54;100498.94;;;12.15;100.00
19210;BME280;9738;51.654;14.238;2022-11-10T00:18:39;100496.25;;;12.15;100.00
19210;BME280;9738;51.654;14.238;2022-11-10T00:21:07;100501.59;;;12.15;100.00
19210;BME280;9738;51.654;14.238;2022-11-10T00:23:33;100499.94;;;12.14;100.00
19210;BME280;9738;51.654;14.238;2022-11-10T00:25:59;100499.25;;;12.12;100.00
19210;BME280;9738;51.654;14.238;2022-11-10T00:28:29;100503.94;;;12.10;100.00
19210;BME280;9738;51.654;14.238;2022-11-10T00:30:55;100509.59;;;12.07;100.00
19210;BME280;9738;51.654;14.238;2022-11-10T00:33:21;100501.22;;;12.02;100.00
19210;BME280;9738;51.654;14.238;2022-11-10T00:35:47;100503.88;;;12.02;100.00
19210;BME280;9738;51.654;14.238;2022-11-10T00:38:13;100507.56;;;12.01;100.00
19210;BME280;9738;51.654;14.238;2022-11-10T00:40:39;100507.72;;;11.99;100.00
19210;BME280;9738;51.654;14.238;2022-11-10T00:43:05;100512.41;;;11.97;100.00
19210;BME280;9738;51.654;14.238;2022-11-10T00:45:30;100523.97;;;11.98;100.00
19210;BME280;9738;51.654;14.238;2022-11-10T00:47:57;100531.66;;;12.01;100.00
19210;BME280;9738;51.654;14.238;2022-11-10T00:50:23;100538.84;;;12.00;100.00
19210;BME280;9738;51.654;14.238;2022-11-10T00:52:48;100532.50;;;12.01;100.00
19210;BME280;9738;51.654;14.238;2022-11-10T00:55:15;100533.31;;;12.02;100.00
19210;BME280;9738;51.654;14.238;2022-11-10T00:57:40;100534.13;;;11.94;100.00
19210;BME280;9738;51.654;14.238;2022-11-10T01:00:07;100543.00;;;11.95;100.00
19210;BME280;9738;51.654;14.238;2022-11-10T01:02:34;100541.31;;;11.94;100.00
19210;BME280;9738;51.654;14.238;2022-11-10T01:04:59;100545.00;;;11.93;100.00
19210;BME280;9738;51.654;14.238;2022-11-10T01:07:25;100548.31;;;11.86;100.00
19210;BME280;9738;51.654;14.238;2022-11-10T01:09:51;100553.97;;;11.83;100.00
19210;BME280;9738;51.654;14.238;2022-11-10T01:12:17;100552.16;;;11.84;100.00
19210;BME280;9738;51.654;14.238;2022-11-10T01:14:46;100557.50;;;11.84;100.00
19210;BME280;9738;51.654;14.238;2022-11-10T01:17:13;100555.25;;;11.79;100.00
19210;BME280;9738;51.654;14.238;2022-11-10T01:19:40;100556.53;;;11.75;100.00
19210;BME280;9738;51.654;14.238;2022-11-10T01:22:06;100564.72;;;11.74;100.00
19210;BME280;9738;51.654;14.238;2022-11-10T01:24:33;100565.75;;;11.73;100.00
19210;BME280;9738;51.654;14.238;2022-11-10T01:26:59;100571.94;;;11.73;100.00
19210;BME280;9738;51.654;14.238;2022-11-10T01:29:24;100570.25;;;11.72;100.00
19210;BME280;9738;51.654;14.238;2022-11-10T01:31:51;100580.56;;;11.67;100.00
19210;BME280;9738;51.654;14.238;2022-11-10T01:34:16;100574.31;;;11.58;100.00
19210;BME280;9738;51.654;14.238;2022-11-10T01:36:44;100578.84;;;11.58;100.00
19210;BME280;9738;51.654;14.238;2022-11-10T01:39:11;100577.13;;;11.57;100.00
19210;BME280;9738;51.654;14.238;2022-11-10T01:41:37;100578.13;;;11.56;100.00
19210;BME280;9738;51.654;14.238;2022-11-10T01:44:14;100581.41;;;11.50;100.00
19210;BME280;9738;51.654;14.238;2022-11-10T01:46:41;100592.13;;;11.50;100.00
19210;BME280;9738;51.654;14.238;2022-11-10T01:49:08;100579.34;;;11.44;100.00
19210;BME280;9738;51.654;14.238;2022-11-10T01:51:44;100591.44;;;11.48;100.00
19210;BME280;9738;51.654;14.238;2022-11-10T01:54:16;100590.44;;;11.49;100.00
19210;BME280;9738;51.654;14.238;2022-11-10T01:56:46;100594.78;;;11.50;100.00
19210;BME280;9738;51.654;14.238;2022-11-10T01:59:17;100591.59;;;11.46;100.00
19210;BME280;9738;51.654;14.238;2022-11-10T02:01:47;100591.72;;;11.45;100.00
19210;BME280;9738;51.654;14.238;2022-11-10T02:04:17;100600.22;;;11.40;100.00
19210;BME280;9738;51.654;14.238;2022-11-10T02:06:47;100589.66;;;11.38;100.00
19210;BME280;9738;51.654;14.238;2022-11-10T02:09:13;100591.97;;;11.33;100.00
19210;BME280;9738;51.654;14.238;2022-11-10T02:11:41;100602.97;;;11.30;100.00
19210;BME280;9738;51.654;14.238;2022-11-10T02:14:08;100601.44;;;11.28;100.00
19210;BME280;9738;51.654;14.238;2022-11-10T02:16:35;100593.59;;;11.26;100.00
19210;BME280;9738;51.654;14.238;2022-11-10T02:19:25;100597.38;;;11.24;100.00
19210;BME280;9738;51.654;14.238;2022-11-10T02:21:51;100603.06;;;11.21;100.00
19210;BME280;9738;51.654;14.238;2022-11-10T02:24:17;100600.81;;;11.16;100.00
19210;BME280;9738;51.654;14.238;2022-11-10T02:26:52;100598.31;;;11.15;100.00
19210;BME280;9738;51.654;14.238;2022-11-10T02:29:20;100608.16;;;11.14;100.00
19210;BME280;9738;51.654;14.238;2022-11-10T02:31:46;100616.47;;;11.11;100.00
19210;BME280;9738;51.654;14.238;2022-11-10T02:34:12;100624.47;;;11.11;100.00
19210;BME280;9738;51.654;14.238;2022-11-10T02:36:39;100633.50;;;11.10;100.00
19210;BME280;9738;51.654;14.238;2022-11-10T02:39:04;100631.16;;;11.07;100.00
19210;BME280;9738;51.654;14.238;2022-11-10T02:41:30;100629.44;;;11.06;100.00
19210;BME280;9738;51.654;14.238;2022-11-10T02:43:57;100630.44;;;11.05;100.00
19210;BME280;9738;51.654;14.238;2022-11-10T02:46:23;100634.41;;;11.01;100.00
19210;BME280;9738;51.654;14.238;2022-11-10T02:48:49;100641.72;;;10.99;100.00
19210;BME280;9738;51.654;14.238;2022-11-10T02:51:15;100643.56;;;10.98;100.00
19210;BME280;9738;51.654;14.238;2022-11-10T02:53:41;100653.41;;;10.98;100.00
19210;BME280;9738;51.654;14.238;2022-11-10T02:56:07;100659.75;;;10.97;100.00
19210;BME280;9738;51.654;14.238;2022-11-10T02:58:33;100660.03;;;10.94;100.00
19210;BME280;9738;51.654;14.238;2022-11-10T03:01:03;100665.53;;;10.92;100.00
19210;BME280;9738;51.654;14.238;2022-11-10T03:03:28;100667.50;;;10.90;100.00
19210;BME280;9738;51.654;14.238;2022-11-10T03:05:55;100665.00;;;10.89;100.00
19210;BME280;9738;51.654;14.238;2022-11-10T03:08:20;100671.19;;;10.89;100.00
19210;BME280;9738;51.654;14.238;2022-11-10T03:10:46;100674.97;;;10.87;100.00
19210;BME280;9738;51.654;14.238;2022-11-10T03:13:13;100673.00;;;10.89;100.00
19210;BME280;9738;51.654;14.238;2022-11-10T03:15:38;100676.66;;;10.88;100.00
19210;BME280;9738;51.654;14.238;2022-11-10T03:18:04;100673.13;;;10.87;100.00
19210;BME280;9738;51.654;14.238;2022-11-10T03:20:31;100680.31;;;10.87;100.00
19210;BME280;9738;51.654;14.238;2022-11-10T03:23:01;100692.16;;;10.84;100.00
19210;BME280;9738;51.654;14.238;2022-11-10T03:25:27;100694.13;;;10.82;100.00
19210;BME280;9738;51.654;14.238;2022-11-10T03:27:53;100693.56;;;10.78;100.00
19210;BME280;9738;51.654;14.238;2022-11-10T03:30:19;100696.56;;;10.75;100.00
19210;BME280;9738;51.654;14.238;2022-11-10T03:32:45;100701.19;;;10.73;100.00
19210;BME280;9738;51.654;14.238;2022-11-10T03:35:11;100711.34;;;10.70;100.00
19210;BME280;9738;51.654;14.238;2022-11-10T03:37:39;100714.84;;;10.70;100.00
19210;BME280;9738;51.654;14.238;2022-11-10T03:40:06;100711.44;;;10.68;100.00
19210;BME280;9738;51.654;14.238;2022-11-10T03:42:32;100714.28;;;10.67;100.00
19210;BME280;9738;51.654;14.238;2022-11-10T03:44:58;100717.25;;;10.64;100.00
19210;BME280;9738;51.654;14.238;2022-11-10T03:47:24;100724.44;;;10.63;100.00
19210;BME280;9738;51.654;14.238;2022-11-10T03:49:50;100734.28;;;10.63;100.00
19210;BME280;9738;51.654;14.238;2022-11-10T03:52:16;100731.72;;;10.61;100.00
19210;BME280;9738;51.654;14.238;2022-11-10T03:54:42;100732.03;;;10.58;100.00
19210;BME280;9738;51.654;14.238;2022-11-10T03:57:08;100736.69;;;10.56;100.00
19210;BME280;9738;51.654;14.238;2022-11-10T03:59:34;100746.78;;;10.52;100.00
19210;BME280;9738;51.654;14.238;2022-11-10T04:02:00;100739.78;;;10.51;100.00
19210;BME280;9738;51.654;14.238;2022-11-10T04:04:27;100738.22;;;10.49;100.00
19210;BME280;9738;51.654;14.238;2022-11-10T04:07:12;100744.69;;;10.46;100.00
19210;BME280;9738;51.654;14.238;2022-11-10T04:09:57;100754.13;;;10.41;100.00
19210;BME280;9738;51.654;14.238;2022-11-10T04:12:23;100754.94;;;10.41;100.00
19210;BME280;9738;51.654;14.238;2022-11-10T04:15:10;100750.44;;;10.42;100.00
19210;BME280;9738;51.654;14.238;2022-11-10T04:17:54;100759.19;;;10.44;100.00
19210;BME280;9738;51.654;14.238;2022-11-10T04:20:41;100763.53;;;10.45;100.00
19210;BME280;9738;51.654;14.238;2022-11-10T04:23:07;100771.53;;;10.45;100.00
19210;BME280;9738;51.654;14.238;2022-11-10T04:26:12;100772.94;;;10.49;100.00
19210;BME280;9738;51.654;14.238;2022-11-10T04:28:55;100774.63;;;10.50;100.00
19210;BME280;9738;51.654;14.238;2022-11-10T04:31:23;100772.81;;;10.50;100.00
19210;BME280;9738;51.654;14.238;2022-11-10T04:33:50;100767.31;;;10.52;100.00
19210;BME280;9738;51.654;14.238;2022-11-10T04:36:27;100779.00;;;10.51;100.00
19210;BME280;9738;51.654;14.238;2022-11-10T04:38:54;100780.66;;;10.52;100.00
19210;BME280;9738;51.654;14.238;2022-11-10T04:41:21;100783.19;;;10.53;100.00
19210;BME280;9738;51.654;14.238;2022-11-10T04:43:47;100783.88;;;10.55;100.00
19210;BME280;9738;51.654;14.238;2022-11-10T04:46:34;100788.25;;;10.57;100.00
19210;BME280;9738;51.654;14.238;2022-11-10T04:49:01;100789.94;;;10.58;100.00
19210;BME280;9738;51.654;14.238;2022-11-10T04:51:29;100789.78;;;10.59;100.00
19210;BME280;9738;51.654;14.238;2022-11-10T04:53:56;100800.19;;;10.62;100.00
19210;BME280;9738;51.654;14.238;2022-11-10T04:56:23;100804.41;;;10.65;100.00
19210;BME280;9738;51.654;14.238;2022-11-10T04:58:50;100802.72;;;10.64;100.00
19210;BME280;9738;51.654;14.238;2022-11-10T05:01:18;100807.50;;;10.70;100.00
19210;BME280;9738;51.654;14.238;2022-11-10T05:03:45;100808.03;;;10.73;100.00
19210;BME280;9738;51.654;14.238;2022-11-10T05:06:11;100811.28;;;10.77;100.00
19210;BME280;9738;51.654;14.238;2022-11-10T05:08:38;100817.88;;;10.82;100.00
19210;BME280;9738;51.654;14.238;2022-11-10T05:11:04;100817.03;;;10.82;100.00
19210;BME280;9738;51.654;14.238;2022-11-10T05:13:31;100819.56;;;10.83;100.00
19210;BME280;9738;51.654;14.238;2022-11-10T05:15:57;100829.41;;;10.83;100.00
19210;BME280;9738;51.654;14.238;2022-11-10T05:18:23;100825.91;;;10.82;100.00
19210;BME280;9738;51.654;14.238;2022-11-10T05:20:49;100837.28;;;10.85;100.00
19210;BME280;9738;51.654;14.238;2022-11-10T05:23:16;100838.81;;;10.87;100.00
19210;BME280;9738;51.654;14.238;2022-11-10T05:26:01;100840.38;;;10.90;100.00
19210;BME280;9738;51.654;14.238;2022-11-10T05:28:26;100833.03;;;10.92;100.00
19210;BME280;9738;51.654;14.238;2022-11-10T05:30:52;100831.06;;;10.94;100.00
19210;BME280;9738;51.654;14.238;2022-11-10T05:33:18;100837.97;;;10.96;100.00
19210;BME280;9738;51.654;14.238;2022-11-10T05:35:44;100839.66;;;10.97;100.00
19210;BME280;9738;51.654;14.238;2022-11-10T05:38:10;100842.31;;;10.97;100.00
19210;BME280;9738;51.654;14.238;2022-11-10T05:40:36;100853.00;;;10.97;100.00
19210;BME280;9738;51.654;14.238;2022-11-10T05:43:02;100853.84;;;10.98;100.00
19210;BME280;9738;51.654;14.238;2022-11-10T05:45:28;100849.50;;;10.97;100.00
19210;BME280;9738;51.654;14.238;2022-11-10T05:47:55;100849.50;;;10.97;100.00
19210;BME280;9738;51.654;14.238;2022-11-10T05:50:22;100853.16;;;10.96;100.00
19210;BME280;9738;51.654;14.238;2022-11-10T05:52:53;100863.13;;;10.94;100.00
19210;BME280;9738;51.654;14.238;2022-11-10T05:55:23;100865.13;;;10.92;100.00
19210;BME280;9738;51.654;14.238;2022-11-10T05:57:51;100872.13;;;10.93;100.00
19210;BME280;9738;51.654;14.238;2022-11-10T06:00:19;100870.47;;;10.92;100.00
19210;BME280;9738;51.654;14.238;2022-11-10T06:03:03;100877.38;;;10.94;100.00
19210;BME280;9738;51.654;14.238;2022-11-10T06:05:31;100882.81;;;10.93;100.00
19210;BME280;9738;51.654;14.238;2022-11-10T06:08:00;100888.91;;;10.95;100.00
19210;BME280;9738;51.654;14.238;2022-11-10T06:10:26;100892.53;;;10.94;100.00
19210;BME280;9738;51.654;14.238;2022-11-10T06:12:52;100904.78;;;10.96;100.00
19210;BME280;9738;51.654;14.238;2022-11-10T06:15:19;100912.94;;;10.95;100.00
19210;BME280;9738;51.654;14.238;2022-11-10T06:17:45;100923.63;;;10.95;100.00
19210;BME280;9738;51.654;14.238;2022-11-10T06:20:13;100925.59;;;10.93;100.00
19210;BME280;9738;51.654;14.238;2022-11-10T06:22:40;100935.16;;;10.95;100.00
19210;BME280;9738;51.654;14.238;2022-11-10T06:25:06;100941.34;;;10.96;100.00
19210;BME280;9738;51.654;14.238;2022-11-10T06:27:32;100948.78;;;10.92;100.00
19210;BME280;9738;51.654;14.238;2022-11-10T06:29:59;100953.72;;;10.87;100.00
19210;BME280;9738;51.654;14.238;2022-11-10T06:32:25;100968.06;;;10.86;100.00
19210;BME280;9738;51.654;14.238;2022-11-10T06:34:51;100972.13;;;10.80;100.00
19210;BME280;9738;51.654;14.238;2022-11-10T06:37:17;100978.06;;;10.84;100.00
19210;BME280;9738;51.654;14.238;2022-11-10T06:39:43;100986.06;;;10.84;100.00
19210;BME280;9738;51.654;14.238;2022-11-10T06:42:08;100986.78;;;10.86;100.00
19210;BME280;9738;51.654;14.238;2022-11-10T06:44:35;100992.97;;;10.87;100.00
19210;BME280;9738;51.654;14.238;2022-11-10T06:47:00;100993.94;;;10.86;100.00
19210;BME280;9738;51.654;14.238;2022-11-10T06:49:26;101003.66;;;10.87;100.00
19210;BME280;9738;51.654;14.238;2022-11-10T06:51:52;101008.72;;;10.90;100.00
19210;BME280;9738;51.654;14.238;2022-11-10T06:54:18;101009.56;;;10.90;100.00
19210;BME280;9738;51.654;14.238;2022-11-10T06:56:44;101017.59;;;10.90;100.00
19210;BME280;9738;51.654;14.238;2022-11-10T06:59:10;101015.75;;;10.91;100.00
19210;BME280;9738;51.654;14.238;2022-11-10T07:01:36;101023.09;;;10.89;100.00
19210;BME280;9738;51.654;14.238;2022-11-10T07:04:02;101024.91;;;10.88;100.00
19210;BME280;9738;51.654;14.238;2022-11-10T07:06:30;101026.72;;;10.88;100.00
19210;BME280;9738;51.654;14.238;2022-11-10T07:08:55;101029.81;;;10.93;100.00
19210;BME280;9738;51.654;14.238;2022-11-10T07:11:21;101029.81;;;10.93;100.00
19210;BME280;9738;51.654;14.238;2022-11-10T07:13:47;101038.69;;;10.93;100.00
19210;BME280;9738;51.654;14.238;2022-11-10T07:16:13;101034.47;;;10.91;100.00
19210;BME280;9738;51.654;14.238;2022-11-10T07:18:39;101042.03;;;10.86;100.00
19210;BME280;9738;51.654;14.238;2022-11-10T07:21:05;101056.69;;;10.81;100.00
19210;BME280;9738;51.654;14.238;2022-11-10T07:23:32;101068.63;;;10.87;100.00
19210;BME280;9738;51.654;14.238;2022-11-10T07:25:59;101078.22;;;10.90;100.00
19210;BME280;9738;51.654;14.238;2022-11-10T07:28:26;101080.88;;;10.90;100.00
19210;BME280;9738;51.654;14.238;2022-11-10T07:30:53;101090.59;;;10.91;100.00
19210;BME280;9738;51.654;14.238;2022-11-10T07:33:19;101098.59;;;10.91;100.00
19210;BME280;9738;51.654;14.238;2022-11-10T07:35:54;101102.25;;;10.90;100.00
19210;BME280;9738;51.654;14.238;2022-11-10T07:38:20;101105.94;;;10.89;100.00
19210;BME280;9738;51.654;14.238;2022-11-10T07:40:50;101109.56;;;10.88;100.00
19210;BME280;9738;51.654;14.238;2022-11-10T07:43:17;101111.13;;;10.90;100.00
19210;BME280;9738;51.654;14.238;2022-11-10T07:45:42;101107.22;;;10.94;100.00
19210;BME280;9738;51.654;14.238;2022-11-10T07:48:09;101117.75;;;10.96;100.00
19210;BME280;9738;51.654;14.238;2022-11-10T07:50:34;101117.03;;;10.94;100.00
19210;BME280;9738;51.654;14.238;2022-11-10T07:53:09;101128.44;;;10.96;100.00
19210;BME280;9738;51.654;14.238;2022-11-10T07:55:37;101130.97;;;10.97;100.00
19210;BME280;9738;51.654;14.238;2022-11-10T07:58:04;101132.94;;;10.95;100.00
19210;BME280;9738;51.654;14.238;2022-11-10T08:00:30;101141.97;;;10.94;100.00
19210;BME280;9738;51.654;14.238;2022-11-10T08:03:04;101146.03;;;10.98;100.00
19210;BME280;9738;51.654;14.238;2022-11-10T08:05:31;101150.38;;;10.99;100.00
19210;BME280;9738;51.654;14.238;2022-11-10T08:07:57;101156.56;;;11.00;100.00
19210;BME280;9738;51.654;14.238;2022-11-10T08:10:25;101160.09;;;11.00;100.00
19210;BME280;9738;51.654;14.238;2022-11-10T08:12:55;101170.78;;;11.00;100.00
19210;BME280;9738;51.654;14.238;2022-11-10T08:15:22;101166.16;;;11.02;100.00
19210;BME280;9738;51.654;14.238;2022-11-10T08:17:48;101171.81;;;11.09;100.00
19210;BME280;9738;51.654;14.238;2022-11-10T08:20:15;101168.16;;;11.10;100.00
19210;BME280;9738;51.654;14.238;2022-11-10T08:22:42;101175.63;;;11.16;100.00
19210;BME280;9738;51.654;14.238;2022-11-10T08:25:09;101178.75;;;11.21;100.00
19210;BME280;9738;51.654;14.238;2022-11-10T08:27:35;101178.00;;;11.19;100.00
19210;BME280;9738;51.654;14.238;2022-11-10T08:30:01;101182.66;;;11.17;100.00
19210;BME280;9738;51.654;14.238;2022-11-10T08:32:27;101194.78;;;11.21;100.00
19210;BME280;9738;51.654;14.238;2022-11-10T08:34:52;101196.72;;;11.19;100.00
19210;BME280;9738;51.654;14.238;2022-11-10T08:37:18;101202.34;;;11.16;100.00
19210;BME280;9738;51.654;14.238;2022-11-10T08:39:44;101201.97;;;11.30;100.00
19210;BME280;9738;51.654;14.238;2022-11-10T08:42:10;101212.44;;;11.62;100.00
19210;BME280;9738;51.654;14.238;2022-11-10T08:44:36;101213.31;;;11.82;100.00
19210;BME280;9738;51.654;14.238;2022-11-10T08:47:02;101205.19;;;12.03;100.00
19210;BME280;9738;51.654;14.238;2022-11-10T08:49:28;101212.06;;;12.15;100.00
19210;BME280;9738;51.654;14.238;2022-11-10T08:51:54;101218.09;;;12.08;100.00
19210;BME280;9738;51.654;14.238;2022-11-10T08:54:20;101222.34;;;12.01;100.00
19210;BME280;9738;51.654;14.238;2022-11-10T08:56:45;101228.25;;;12.14;100.00
19210;BME280;9738;51.654;14.238;2022-11-10T08:59:12;101231.38;;;12.00;100.00
19210;BME280;9738;51.654;14.238;2022-11-10T09:01:37;101228.56;;;11.92;100.00
19210;BME280;9738;51.654;14.238;2022-11-10T09:04:03;101230.81;;;11.96;100.00
19210;BME280;9738;51.654;14.238;2022-11-10T09:06:29;101228.53;;;12.01;100.00
19210;BME280;9738;51.654;14.238;2022-11-10T09:08:55;101230.94;;;12.14;100.00
19210;BME280;9738;51.654;14.238;2022-11-10T09:11:21;101238.41;;;12.20;100.00
19210;BME280;9738;51.654;14.238;2022-11-10T09:13:47;101245.31;;;12.32;100.00
19210;BME280;9738;51.654;14.238;2022-11-10T09:16:13;101246.41;;;12.39;100.00
19210;BME280;9738;51.654;14.238;2022-11-10T09:18:39;101248.25;;;12.49;100.00
19210;BME280;9738;51.654;14.238;2022-11-10T09:21:05;101258.09;;;12.67;100.00
19210;BME280;9738;51.654;14.238;2022-11-10T09:23:36;101261.56;;;12.87;100.00
19210;BME280;9738;51.654;14.238;2022-11-10T09:26:02;101261.38;;;12.98;100.00
19210;BME280;9738;51.654;14.238;2022-11-10T09:28:32;101264.50;;;12.94;100.00
19210;BME280;9738;51.654;14.238;2022-11-10T09:30:58;101284.00;;;12.86;100.00
19210;BME280;9738;51.654;14.238;2022-11-10T09:33:24;101287.00;;;12.64;100.00
19210;BME280;9738;51.654;14.238;2022-11-10T09:35:55;101289.56;;;12.56;100.00
19210;BME280;9738;51.654;14.238;2022-11-10T09:38:21;101287.56;;;12.58;100.00
19210;BME280;9738;51.654;14.238;2022-11-10T09:40:54;101288.09;;;12.71;100.00
19210;BME280;9738;51.654;14.238;2022-11-10T09:43:32;101293.28;;;12.92;100.00
19210;BME280;9738;51.654;14.238;2022-11-10T09:46:05;101298.84;;;13.18;100.00
19210;BME280;9738;51.654;14.238;2022-11-10T09:48:42;101293.63;;;13.26;100.00
19210;BME280;9738;51.654;14.238;2022-11-10T09:51:17;101299.38;;;13.31;100.00
19210;BME280;9738;51.654;14.238;2022-11-10T09:53:50;101303.84;;;13.40;100.00
19210;BME280;9738;51.654;14.238;2022-11-10T09:56:26;101293.34;;;13.57;99.58
19210;BME280;9738;51.654;14.238;2022-11-10T09:58:55;101289.16;;;13.44;96.40
19210;BME280;9738;51.654;14.238;2022-11-10T10:04:52;101308.19;;;13.23;96.71
19210;BME280;9738;51.654;14.238;2022-11-10T10:07:52;101305.28;;;13.35;98.84
19210;BME280;9738;51.654;14.238;2022-11-10T10:13:02;101302.66;;;13.25;94.77
19210;BME280;9738;51.654;14.238;2022-11-10T10:15:44;101302.47;;;13.36;95.67
19210;BME280;9738;51.654;14.238;2022-11-10T10:18:30;101304.41;;;13.44;94.98
19210;BME280;9738;51.654;14.238;2022-11-10T10:21:27;101309.94;;;13.70;94.08
19210;BME280;9738;51.654;14.238;2022-11-10T10:23:57;101314.81;;;14.02;93.29
19210;BME280;9738;51.654;14.238;2022-11-10T10:26:31;101312.56;;;13.97;88.84
19210;BME280;9738;51.654;14.238;2022-11-10T10:29:04;101301.06;;;14.05;88.83
19210;BME280;9738;51.654;14.238;2022-11-10T10:31:37;101301.00;;;14.15;88.72
19210;BME280;9738;51.654;14.238;2022-11-10T10:34:10;101293.47;;;14.00;87.49
19210;BME280;9738;51.654;14.238;2022-11-10T10:36:37;101304.97;;;14.28;89.65
19210;BME280;9738;51.654;14.238;2022-11-10T10:39:08;101303.75;;;14.58;88.67
19210;BME280;9738;51.654;14.238;2022-11-10T10:41:36;101300.72;;;14.79;83.83
19210;BME280;9738;51.654;14.238;2022-11-10T10:44:13;101306.19;;;14.70;84.17
19210;BME280;9738;51.654;14.238;2022-11-10T10:49:21;101304.91;;;14.82;82.52
19210;BME280;9738;51.654;14.238;2022-11-10T10:51:48;101309.44;;;14.81;81.89
19210;BME280;9738;51.654;14.238;2022-11-10T10:54:22;101300.28;;;14.92;82.22
19210;BME280;9738;51.654;14.238;2022-11-10T10:56:48;101300.13;;;14.94;81.73
19210;BME280;9738;51.654;14.238;2022-11-10T10:59:22;101313.63;;;14.76;80.40
19210;BME280;9738;51.654;14.238;2022-11-10T11:01:52;101309.38;;;14.47;80.10
19210;BME280;9738;51.654;14.238;2022-11-10T11:04:33;101308.72;;;14.18;81.77
19210;BME280;9738;51.654;14.238;2022-11-10T11:07:03;101301.84;;;14.33;80.78
19210;BME280;9738;51.654;14.238;2022-11-10T11:09:40;101301.38;;;14.55;81.08
19210;BME280;9738;51.654;14.238;2022-11-10T11:12:27;101302.28;;;14.64;79.04
19210;BME280;9738;51.654;14.238;2022-11-10T11:17:55;101305.03;;;14.72;77.59
19210;BME280;9738;51.654;14.238;2022-11-10T11:23:44;101306.63;;;15.09;79.22
19210;BME280;9738;51.654;14.238;2022-11-10T11:26:18;101314.22;;;15.48;75.94
19210;BME280;9738;51.654;14.238;2022-11-10T11:28:56;101309.78;;;15.38;74.86
19210;BME280;9738;51.654;14.238;2022-11-10T11:31:34;101313.81;;;15.34;75.12
19210;BME280;9738;51.654;14.238;2022-11-10T11:34:26;101318.66;;;15.31;74.74
19210;BME280;9738;51.654;14.238;2022-11-10T11:39:52;101320.59;;;15.47;75.33
19210;BME280;9738;51.654;14.238;2022-11-10T11:45:19;101327.41;;;15.33;76.61
19210;BME280;9738;51.654;14.238;2022-11-10T11:48:17;101322.03;;;15.33;75.44
19210;BME280;9738;51.654;14.238;2022-11-10T11:50:53;101325.06;;;15.30;71.41
19210;BME280;9738;51.654;14.238;2022-11-10T11:53:24;101325.63;;;15.41;72.29
19210;BME280;9738;51.654;14.238;2022-11-10T11:56:14;101330.63;;;15.62;73.51
19210;BME280;9738;51.654;14.238;2022-11-10T11:58:44;101336.59;;;15.48;72.82
19210;BME280;9738;51.654;14.238;2022-11-10T12:01:27;101335.59;;;15.49;75.34
19210;BME280;9738;51.654;14.238;2022-11-10T12:06:38;101341.16;;;14.70;77.20
19210;BME280;9738;51.654;14.238;2022-11-10T12:09:19;101353.13;;;14.40;78.36
19210;BME280;9738;51.654;14.238;2022-11-10T12:17:45;101358.09;;;13.71;82.08
19210;BME280;9738;51.654;14.238;2022-11-10T12:20:24;101358.00;;;13.63;82.79
19210;BME280;9738;51.654;14.238;2022-11-10T12:23:09;101362.81;;;13.60;83.65
19210;BME280;9738;51.654;14.238;2022-11-10T12:25:59;101361.72;;;13.52;83.70
19210;BME280;9738;51.654;14.238;2022-11-10T12:28:40;101352.97;;;13.50;83.92
19210;BME280;9738;51.654;14.238;2022-11-10T12:31:13;101365.53;;;13.50;84.18
19210;BME280;9738;51.654;14.238;2022-11-10T12:33:44;101365.66;;;13.48;84.14
19210;BME280;9738;51.654;14.238;2022-11-10T12:36:14;101363.72;;;13.50;84.56
19210;BME280;9738;51.654;14.238;2022-11-10T12:39:03;101357.19;;;13.53;84.79
19210;BME280;9738;51.654;14.238;2022-11-10T12:41:42;101349.56;;;13.48;83.81
19210;BME280;9738;51.654;14.238;2022-11-10T12:44:25;101345.19;;;13.47;84.74
19210;BME280;9738;51.654;14.238;2022-11-10T12:46:56;101342.97;;;13.43;84.31
19210;BME280;9738;51.654;14.238;2022-11-10T12:49:35;101343.25;;;13.40;85.23
19210;BME280;9738;51.654;14.238;2022-11-10T12:52:22;101352.47;;;13.37;85.11
19210;BME280;9738;51.654;14.238;2022-11-10T12:54:51;101353.59;;;13.35;85.60
19210;BME280;9738;51.654;14.238;2022-11-10T12:57:19;101354.69;;;13.42;85.66
19210;BME280;9738;51.654;14.238;2022-11-10T12:59:59;101353.56;;;13.44;85.04
19210;BME280;9738;51.654;14.238;2022-11-10T13:02:33;101360.03;;;13.42;84.24
19210;BME280;9738;51.654;14.238;2022-11-10T13:05:31;101360.03;;;13.42;84.65
19210;BME280;9738;51.654;14.238;2022-11-10T13:10:46;101369.41;;;13.38;84.77
19210;BME280;9738;51.654;14.238;2022-11-10T13:13:14;101366.97;;;13.44;86.41
19210;BME280;9738;51.654;14.238;2022-11-10T13:15:45;101371.34;;;13.45;85.98
19210;BME280;9738;51.654;14.238;2022-11-10T13:18:22;101360.78;;;13.44;85.07
19210;BME280;9738;51.654;14.238;2022-11-10T13:20:53;101371.34;;;13.45;85.70
19210;BME280;9738;51.654;14.238;2022-11-10T13:28:56;101395.06;;;13.50;85.02
19210;BME280;9738;51.654;14.238;2022-11-10T13:36:56;101407.94;;;13.74;85.28
19210;BME280;9738;51.654;14.238;2022-11-10T13:39:26;101411.03;;;13.79;83.71